« Back
NWS Peachtree City, Ga » Text Product » CSG Terminal Aerodrome Forecast


Printer-friendly Version
Current Version              Previous Versions:   1  2  3  4  5  6  7  8  9  

Terminal Aerodrome Forecast

371
FTUS42 KFFC 252332
TAFCSG
TAF
KCSG 252332Z 2600/2624 22010KT P6SM SCT250
     FM260300 23008KT P6SM BKN050
     FM260800 26005KT P6SM BKN020
     FM261500 30012G20KT P6SM BKN030
     FM261900 30012G22KT P6SM SCT050=



USA.gov is the U.S. government's official web portal to all federal, state and local government web resources and services.